sensor_id;sensor_type;location;lat;lon;timestamp;pressure;altitude;pressure_sealevel;temperature;humidity
18819;BME280;9537;45.594;9.294;2023-02-17T00:00:12;100965.59;;;6.72;77.44
18819;BME280;9537;45.594;9.294;2023-02-17T00:01:17;100953.41;;;6.71;77.71
18819;BME280;9537;45.594;9.294;2023-02-17T00:02:19;100958.56;;;6.73;77.86
18819;BME280;9537;45.594;9.294;2023-02-17T00:03:21;100958.56;;;6.73;78.84
18819;BME280;9537;45.594;9.294;2023-02-17T00:04:23;100954.38;;;6.70;79.04
18819;BME280;9537;45.594;9.294;2023-02-17T00:05:25;100957.00;;;6.70;78.74
18819;BME280;9537;45.594;9.294;2023-02-17T00:06:29;100956.16;;;6.70;79.40
18819;BME280;9537;45.594;9.294;2023-02-17T00:07:32;100951.84;;;6.69;79.33
18819;BME280;9537;45.594;9.294;2023-02-17T00:08:33;100947.81;;;6.65;78.92
18819;BME280;9537;45.594;9.294;2023-02-17T00:09:35;100952.31;;;6.63;78.67
18819;BME280;9537;45.594;9.294;2023-02-17T00:10:37;100948.88;;;6.62;78.92
18819;BME280;9537;45.594;9.294;2023-02-17T00:11:39;100945.50;;;6.60;78.22
18819;BME280;9537;45.594;9.294;2023-02-17T00:12:41;100948.97;;;6.61;78.29
18819;BME280;9537;45.594;9.294;2023-02-17T00:13:42;100937.63;;;6.60;78.31
18819;BME280;9537;45.594;9.294;2023-02-17T00:14:44;100951.72;;;6.59;78.78
18819;BME280;9537;45.594;9.294;2023-02-17T00:15:45;100944.56;;;6.61;78.91
18819;BME280;9537;45.594;9.294;2023-02-17T00:16:47;100944.56;;;6.61;78.98
18819;BME280;9537;45.594;9.294;2023-02-17T00:17:49;100945.50;;;6.60;79.34
18819;BME280;9537;45.594;9.294;2023-02-17T00:18:52;100948.03;;;6.62;79.13
18819;BME280;9537;45.594;9.294;2023-02-17T00:19:54;100944.56;;;6.61;79.23
18819;BME280;9537;45.594;9.294;2023-02-17T00:20:55;100942.88;;;6.60;79.11
18819;BME280;9537;45.594;9.294;2023-02-17T00:22:00;100948.97;;;6.61;79.67
18819;BME280;9537;45.594;9.294;2023-02-17T00:23:01;100943.47;;;6.64;79.73
18819;BME280;9537;45.594;9.294;2023-02-17T00:24:03;100943.63;;;6.62;78.74
18819;BME280;9537;45.594;9.294;2023-02-17T00:25:05;100943.94;;;6.58;78.72
18819;BME280;9537;45.594;9.294;2023-02-17T00:26:07;100944.31;;;6.53;78.65
18819;BME280;9537;45.594;9.294;2023-02-17T00:27:09;100943.69;;;6.49;78.20
18819;BME280;9537;45.594;9.294;2023-02-17T00:28:11;100941.53;;;6.43;77.95
18819;BME280;9537;45.594;9.294;2023-02-17T00:29:12;100943.44;;;6.41;77.67
18819;BME280;9537;45.594;9.294;2023-02-17T00:30:14;100945.22;;;6.41;77.57
18819;BME280;9537;45.594;9.294;2023-02-17T00:31:18;100942.72;;;6.39;77.82
18819;BME280;9537;45.594;9.294;2023-02-17T00:32:20;100946.16;;;6.40;78.08
18819;BME280;9537;45.594;9.294;2023-02-17T00:33:21;100947.84;;;6.41;78.31
18819;BME280;9537;45.594;9.294;2023-02-17T00:34:24;100938.28;;;6.40;78.07
18819;BME280;9537;45.594;9.294;2023-02-17T00:35:25;100942.59;;;6.41;78.71
18819;BME280;9537;45.594;9.294;2023-02-17T00:36:27;100940.19;;;6.38;78.12
18819;BME280;9537;45.594;9.294;2023-02-17T00:37:30;100937.69;;;6.36;78.12
18819;BME280;9537;45.594;9.294;2023-02-17T00:38:32;100936.13;;;6.34;78.81
18819;BME280;9537;45.594;9.294;2023-02-17T00:39:33;100942.13;;;6.36;78.47
18819;BME280;9537;45.594;9.294;2023-02-17T00:40:35;100945.34;;;6.39;78.92
18819;BME280;9537;45.594;9.294;2023-02-17T00:41:36;100939.25;;;6.39;79.06
18819;BME280;9537;45.594;9.294;2023-02-17T00:42:38;100943.53;;;6.40;79.15
18819;BME280;9537;45.594;9.294;2023-02-17T00:43:39;100939.03;;;6.42;78.09
18819;BME280;9537;45.594;9.294;2023-02-17T00:44:41;100942.72;;;6.39;77.86
18819;BME280;9537;45.594;9.294;2023-02-17T00:45:41;100943.69;;;6.38;77.79
18819;BME280;9537;45.594;9.294;2023-02-17T00:46:45;100940.31;;;6.36;78.34
18819;BME280;9537;45.594;9.294;2023-02-17T00:47:46;100938.63;;;6.35;78.06
18819;BME280;9537;45.594;9.294;2023-02-17T00:48:48;100944.00;;;6.34;77.87
18819;BME280;9537;45.594;9.294;2023-02-17T00:49:49;100939.00;;;6.30;77.55
18819;BME280;9537;45.594;9.294;2023-02-17T00:50:51;100940.88;;;6.28;77.49
18819;BME280;9537;45.594;9.294;2023-02-17T00:51:52;100944.47;;;6.27;77.55
18819;BME280;9537;45.594;9.294;2023-02-17T00:52:56;100942.16;;;6.23;78.19
18819;BME280;9537;45.594;9.294;2023-02-17T00:53:56;100949.22;;;6.22;78.63
18819;BME280;9537;45.594;9.294;2023-02-17T00:54:58;100946.69;;;6.21;78.40
18819;BME280;9537;45.594;9.294;2023-02-17T00:56:00;100943.97;;;6.22;77.39
18819;BME280;9537;45.594;9.294;2023-02-17T00:57:02;100945.63;;;6.23;78.19
18819;BME280;9537;45.594;9.294;2023-02-17T00:58:03;100950.88;;;6.23;78.47
18819;BME280;9537;45.594;9.294;2023-02-17T00:59:05;100946.59;;;6.22;77.91
18819;BME280;9537;45.594;9.294;2023-02-17T01:00:07;100948.47;;;6.20;78.27
18819;BME280;9537;45.594;9.294;2023-02-17T01:01:09;100945.84;;;6.20;78.98
18819;BME280;9537;45.594;9.294;2023-02-17T01:02:10;100949.44;;;6.19;77.99
18819;BME280;9537;45.594;9.294;2023-02-17T01:03:12;100952.06;;;6.19;77.86
18819;BME280;9537;45.594;9.294;2023-02-17T01:04:13;100954.19;;;6.14;77.42
18819;BME280;9537;45.594;9.294;2023-02-17T01:05:16;100948.31;;;6.11;77.50
18819;BME280;9537;45.594;9.294;2023-02-17T01:06:21;100946.75;;;6.08;77.26
18819;BME280;9537;45.594;9.294;2023-02-17T01:07:24;100952.31;;;6.03;77.52
18819;BME280;9537;45.594;9.294;2023-02-17T01:08:26;100947.22;;;6.02;77.67
18819;BME280;9537;45.594;9.294;2023-02-17T01:09:28;100949.63;;;5.92;77.50
18819;BME280;9537;45.594;9.294;2023-02-17T01:10:29;100945.22;;;5.93;77.57
18819;BME280;9537;45.594;9.294;2023-02-17T01:11:33;100954.25;;;5.88;77.06
18819;BME280;9537;45.594;9.294;2023-02-17T01:12:34;100938.88;;;5.84;77.26
18819;BME280;9537;45.594;9.294;2023-02-17T01:13:36;100952.63;;;5.75;77.63
18819;BME280;9537;45.594;9.294;2023-02-17T01:14:37;100958.59;;;5.77;77.03
18819;BME280;9537;45.594;9.294;2023-02-17T01:15:40;100946.75;;;5.71;77.05
18819;BME280;9537;45.594;9.294;2023-02-17T01:16:45;100947.16;;;5.78;76.59
18819;BME280;9537;45.594;9.294;2023-02-17T01:17:47;100955.97;;;5.77;76.80
18819;BME280;9537;45.594;9.294;2023-02-17T01:18:48;100951.78;;;5.74;76.65
18819;BME280;9537;45.594;9.294;2023-02-17T01:19:50;100949.81;;;5.65;76.27
18819;BME280;9537;45.594;9.294;2023-02-17T01:20:52;100949.81;;;5.65;77.39
18819;BME280;9537;45.594;9.294;2023-02-17T01:21:53;100944.59;;;5.65;77.29
18819;BME280;9537;45.594;9.294;2023-02-17T01:22:54;100942.06;;;5.63;77.56
18819;BME280;9537;45.594;9.294;2023-02-17T01:23:59;100949.31;;;5.60;78.05
18819;BME280;9537;45.594;9.294;2023-02-17T01:25:01;100944.28;;;5.57;78.50
18819;BME280;9537;45.594;9.294;2023-02-17T01:26:03;100942.28;;;5.60;78.54
18819;BME280;9537;45.594;9.294;2023-02-17T01:27:04;100939.06;;;5.57;79.16
18819;BME280;9537;45.594;9.294;2023-02-17T01:28:08;100941.44;;;5.60;79.68
18819;BME280;9537;45.594;9.294;2023-02-17T01:29:09;100934.53;;;5.59;80.09
18819;BME280;9537;45.594;9.294;2023-02-17T01:30:12;100939.66;;;5.60;80.30
18819;BME280;9537;45.594;9.294;2023-02-17T01:31:13;100932.66;;;5.61;80.32
18819;BME280;9537;45.594;9.294;2023-02-17T01:32:15;100939.56;;;5.62;79.95
18819;BME280;9537;45.594;9.294;2023-02-17T01:33:16;100949.81;;;5.65;80.13
18819;BME280;9537;45.594;9.294;2023-02-17T01:34:18;100935.28;;;5.61;79.98
18819;BME280;9537;45.594;9.294;2023-02-17T01:35:19;100945.88;;;5.59;79.93
18819;BME280;9537;45.594;9.294;2023-02-17T01:36:21;100942.19;;;5.62;79.63
18819;BME280;9537;45.594;9.294;2023-02-17T01:37:22;100940.41;;;5.62;79.08
18819;BME280;9537;45.594;9.294;2023-02-17T01:38:24;100943.97;;;5.61;79.47
18819;BME280;9537;45.594;9.294;2023-02-17T01:39:27;100944.69;;;5.63;79.68
18819;BME280;9537;45.594;9.294;2023-02-17T01:40:29;100942.78;;;5.65;79.43
18819;BME280;9537;45.594;9.294;2023-02-17T01:41:30;100939.34;;;5.65;79.27
18819;BME280;9537;45.594;9.294;2023-02-17T01:42:32;100933.38;;;5.63;78.79
18819;BME280;9537;45.594;9.294;2023-02-17T01:43:33;100941.34;;;5.61;79.35
18819;BME280;9537;45.594;9.294;2023-02-17T01:46:10;100936.44;;;5.57;77.99
18819;BME280;9537;45.594;9.294;2023-02-17T01:47:12;100929.75;;;5.53;77.85
18819;BME280;9537;45.594;9.294;2023-02-17T01:48:15;100936.66;;;5.54;77.83
18819;BME280;9537;45.594;9.294;2023-02-17T01:49:31;100930.28;;;5.45;77.53
18819;BME280;9537;45.594;9.294;2023-02-17T01:50:34;100936.47;;;5.44;78.02
18819;BME280;9537;45.594;9.294;2023-02-17T01:51:37;100932.28;;;5.29;78.70
18819;BME280;9537;45.594;9.294;2023-02-17T01:52:38;100933.25;;;5.28;79.07
18819;BME280;9537;45.594;9.294;2023-02-17T01:53:43;100926.97;;;5.30;79.68
18819;BME280;9537;45.594;9.294;2023-02-17T01:54:50;100921.38;;;5.35;79.60
18819;BME280;9537;45.594;9.294;2023-02-17T01:55:52;100925.78;;;5.34;79.38
18819;BME280;9537;45.594;9.294;2023-02-17T01:56:57;100913.66;;;5.33;79.28
18819;BME280;9537;45.594;9.294;2023-02-17T01:58:00;100921.72;;;5.30;79.41
18819;BME280;9537;45.594;9.294;2023-02-17T01:59:06;100920.97;;;5.28;79.78
18819;BME280;9537;45.594;9.294;2023-02-17T02:00:09;100935.88;;;5.28;79.64
18819;BME280;9537;45.594;9.294;2023-02-17T02:01:13;100928.97;;;5.27;79.98
18819;BME280;9537;45.594;9.294;2023-02-17T02:02:14;100924.34;;;5.30;79.51
18819;BME280;9537;45.594;9.294;2023-02-17T02:03:17;100929.59;;;5.30;79.32
18819;BME280;9537;45.594;9.294;2023-02-17T02:04:20;100929.25;;;5.35;79.42
18819;BME280;9537;45.594;9.294;2023-02-17T02:05:23;100924.88;;;5.35;79.34
18819;BME280;9537;45.594;9.294;2023-02-17T02:06:26;100916.13;;;5.35;79.75
18819;BME280;9537;45.594;9.294;2023-02-17T02:07:31;100916.78;;;5.38;80.13
18819;BME280;9537;45.594;9.294;2023-02-17T02:08:37;100917.00;;;5.35;79.78
18819;BME280;9537;45.594;9.294;2023-02-17T02:09:45;100913.66;;;5.33;79.48
18819;BME280;9537;45.594;9.294;2023-02-17T02:10:49;100913.66;;;5.33;79.05
18819;BME280;9537;45.594;9.294;2023-02-17T02:11:54;100912.81;;;5.33;79.27
18819;BME280;9537;45.594;9.294;2023-02-17T02:12:55;100919.09;;;5.30;79.34
18819;BME280;9537;45.594;9.294;2023-02-17T02:13:57;100906.75;;;5.32;79.22
18819;BME280;9537;45.594;9.294;2023-02-17T02:15:01;100903.38;;;5.30;78.69
18819;BME280;9537;45.594;9.294;2023-02-17T02:16:10;100910.50;;;5.28;79.01
18819;BME280;9537;45.594;9.294;2023-02-17T02:17:19;100909.97;;;5.23;78.86
18819;BME280;9537;45.594;9.294;2023-02-17T02:18:32;100905.91;;;5.19;78.07
18819;BME280;9537;45.594;9.294;2023-02-17T02:20:02;100909.50;;;5.18;78.50
18819;BME280;9537;45.594;9.294;2023-02-17T02:21:30;100912.22;;;5.16;78.22
18819;BME280;9537;45.594;9.294;2023-02-17T02:23:04;100918.63;;;5.12;77.66
18819;BME280;9537;45.594;9.294;2023-02-17T02:24:22;100921.84;;;5.16;78.13
18819;BME280;9537;45.594;9.294;2023-02-17T02:28:51;100918.72;;;5.11;79.17
18819;BME280;9537;45.594;9.294;2023-02-17T02:30:06;100921.22;;;5.12;78.86
18819;BME280;9537;45.594;9.294;2023-02-17T02:31:28;100915.13;;;5.12;78.95
18819;BME280;9537;45.594;9.294;2023-02-17T02:32:44;100916.81;;;5.13;79.09
18819;BME280;9537;45.594;9.294;2023-02-17T02:33:51;100916.00;;;5.12;78.60
18819;BME280;9537;45.594;9.294;2023-02-17T02:34:56;100912.63;;;5.10;78.80
18819;BME280;9537;45.594;9.294;2023-02-17T02:36:04;100910.75;;;5.12;79.04
18819;BME280;9537;45.594;9.294;2023-02-17T02:37:13;100913.38;;;5.12;78.90
18819;BME280;9537;45.594;9.294;2023-02-17T02:38:20;100910.03;;;5.10;79.15
18819;BME280;9537;45.594;9.294;2023-02-17T02:39:28;100910.94;;;5.09;78.68
18819;BME280;9537;45.594;9.294;2023-02-17T02:40:33;100911.16;;;5.06;78.97
18819;BME280;9537;45.594;9.294;2023-02-17T02:41:40;100917.25;;;5.07;78.36
18819;BME280;9537;45.594;9.294;2023-02-17T02:42:42;100913.16;;;5.03;78.33
18819;BME280;9537;45.594;9.294;2023-02-17T02:43:46;100915.78;;;5.03;77.77
18819;BME280;9537;45.594;9.294;2023-02-17T02:44:47;100903.03;;;4.98;78.23
18819;BME280;9537;45.594;9.294;2023-02-17T02:45:50;100906.69;;;4.95;78.03
18819;BME280;9537;45.594;9.294;2023-02-17T02:46:57;100908.56;;;4.93;78.35
18819;BME280;9537;45.594;9.294;2023-02-17T02:48:01;100903.63;;;4.89;78.74
18819;BME280;9537;45.594;9.294;2023-02-17T02:49:03;100904.69;;;4.86;79.17
18819;BME280;9537;45.594;9.294;2023-02-17T02:50:07;100904.06;;;4.83;78.98
18819;BME280;9537;45.594;9.294;2023-02-17T02:51:19;100907.50;;;4.83;79.01
18819;BME280;9537;45.594;9.294;2023-02-17T02:52:28;100900.81;;;4.79;78.35
18819;BME280;9537;45.594;9.294;2023-02-17T02:53:44;100904.78;;;4.72;78.38
18819;BME280;9537;45.594;9.294;2023-02-17T02:54:51;100899.97;;;4.66;78.40
18819;BME280;9537;45.594;9.294;2023-02-17T02:56:04;100895.91;;;4.62;78.53
18819;BME280;9537;45.594;9.294;2023-02-17T02:57:19;100896.72;;;4.62;78.37
18819;BME280;9537;45.594;9.294;2023-02-17T02:58:23;100889.84;;;4.61;78.36
18819;BME280;9537;45.594;9.294;2023-02-17T02:59:36;100894.25;;;4.61;78.20
18819;BME280;9537;45.594;9.294;2023-02-17T03:00:48;100900.72;;;4.55;78.20
18819;BME280;9537;45.594;9.294;2023-02-17T03:02:02;100900.06;;;4.51;79.20
18819;BME280;9537;45.594;9.294;2023-02-17T03:03:09;100904.59;;;4.49;79.13
18819;BME280;9537;45.594;9.294;2023-02-17T03:04:20;100903.34;;;4.55;79.21
18819;BME280;9537;45.594;9.294;2023-02-17T03:05:31;100897.16;;;4.56;78.91
18819;BME280;9537;45.594;9.294;2023-02-17T03:06:42;100900.59;;;4.57;79.80
18819;BME280;9537;45.594;9.294;2023-02-17T03:07:49;100902.38;;;4.56;79.36
18819;BME280;9537;45.594;9.294;2023-02-17T03:08:59;100894.75;;;4.53;79.43
18819;BME280;9537;45.594;9.294;2023-02-17T03:10:05;100896.31;;;4.56;79.28
18819;BME280;9537;45.594;9.294;2023-02-17T03:11:07;100896.84;;;4.48;79.55
18819;BME280;9537;45.594;9.294;2023-02-17T03:12:09;100895.78;;;4.50;79.21
18819;BME280;9537;45.594;9.294;2023-02-17T03:13:10;100897.25;;;4.55;79.16
18819;BME280;9537;45.594;9.294;2023-02-17T03:14:14;100893.59;;;4.57;78.79
18819;BME280;9537;45.594;9.294;2023-02-17T03:15:21;100895.38;;;4.57;78.91
18819;BME280;9537;45.594;9.294;2023-02-17T03:16:26;100894.53;;;4.56;78.67
18819;BME280;9537;45.594;9.294;2023-02-17T03:17:29;100894.53;;;4.56;78.73
18819;BME280;9537;45.594;9.294;2023-02-17T03:18:33;100894.75;;;4.53;77.74
18819;BME280;9537;45.594;9.294;2023-02-17T03:19:34;100895.66;;;4.52;78.47
18819;BME280;9537;45.594;9.294;2023-02-17T03:20:40;100896.63;;;4.51;78.71
18819;BME280;9537;45.594;9.294;2023-02-17T03:21:47;100890.56;;;4.50;78.56
18819;BME280;9537;45.594;9.294;2023-02-17T03:22:50;100893.25;;;4.49;79.10
18819;BME280;9537;45.594;9.294;2023-02-17T03:23:51;100890.56;;;4.50;79.15
18819;BME280;9537;45.594;9.294;2023-02-17T03:24:53;100895.03;;;4.48;79.08
18819;BME280;9537;45.594;9.294;2023-02-17T03:25:54;100901.03;;;4.50;79.32
18819;BME280;9537;45.594;9.294;2023-02-17T03:26:56;100894.44;;;4.45;79.61
18819;BME280;9537;45.594;9.294;2023-02-17T03:27:57;100895.59;;;4.41;79.82
18819;BME280;9537;45.594;9.294;2023-02-17T03:28:59;100892.63;;;4.45;79.57
18819;BME280;9537;45.594;9.294;2023-02-17T03:30:00;100895.25;;;4.45;79.66
18819;BME280;9537;45.594;9.294;2023-02-17T03:31:03;100897.66;;;4.48;79.57
18819;BME280;9537;45.594;9.294;2023-02-17T03:32:04;100894.22;;;4.48;79.19
18819;BME280;9537;45.594;9.294;2023-02-17T03:33:07;100894.44;;;4.45;79.02
18819;BME280;9537;45.594;9.294;2023-02-17T03:34:09;100893.38;;;4.47;79.53
18819;BME280;9537;45.594;9.294;2023-02-17T03:35:11;100892.09;;;4.40;79.62
18819;BME280;9537;45.594;9.294;2023-02-17T03:36:12;100892.75;;;4.44;79.49
18819;BME280;9537;45.594;9.294;2023-02-17T03:37:14;100893.88;;;4.40;79.20
18819;BME280;9537;45.594;9.294;2023-02-17T03:38:15;100896.84;;;4.35;79.39
18819;BME280;9537;45.594;9.294;2023-02-17T03:39:17;100900.16;;;4.37;78.98
18819;BME280;9537;45.594;9.294;2023-02-17T03:40:18;100897.53;;;4.37;78.89
18819;BME280;9537;45.594;9.294;2023-02-17T03:41:21;100906.03;;;4.41;78.47
18819;BME280;9537;45.594;9.294;2023-02-17T03:42:22;100902.69;;;4.39;78.49
18819;BME280;9537;45.594;9.294;2023-02-17T03:43:24;100900.91;;;4.39;78.41
18819;BME280;9537;45.594;9.294;2023-02-17T03:44:25;100901.66;;;4.41;77.79
18819;BME280;9537;45.594;9.294;2023-02-17T03:45:27;100910.53;;;4.39;77.24
18819;BME280;9537;45.594;9.294;2023-02-17T03:46:28;100908.00;;;4.37;77.97
18819;BME280;9537;45.594;9.294;2023-02-17T03:47:30;100905.38;;;4.37;78.00
18819;BME280;9537;45.594;9.294;2023-02-17T03:48:31;100907.16;;;4.37;78.11
18819;BME280;9537;45.594;9.294;2023-02-17T03:49:35;100906.34;;;4.36;78.05
18819;BME280;9537;45.594;9.294;2023-02-17T03:50:36;100908.13;;;4.36;77.98
18819;BME280;9537;45.594;9.294;2023-02-17T03:51:38;100906.34;;;4.36;78.38
18819;BME280;9537;45.594;9.294;2023-02-17T03:52:39;100904.47;;;4.38;77.96
18819;BME280;9537;45.594;9.294;2023-02-17T03:53:42;100902.06;;;4.35;77.98
18819;BME280;9537;45.594;9.294;2023-02-17T03:54:43;100892.44;;;4.36;78.45
18819;BME280;9537;45.594;9.294;2023-02-17T03:55:45;100902.06;;;4.35;78.44
18819;BME280;9537;45.594;9.294;2023-02-17T03:56:46;100901.94;;;4.37;78.49
18819;BME280;9537;45.594;9.294;2023-02-17T03:57:48;100896.63;;;4.38;78.21
18819;BME280;9537;45.594;9.294;2023-02-17T03:58:50;100899.31;;;4.37;77.68
18819;BME280;9537;45.594;9.294;2023-02-17T03:59:52;100899.44;;;4.35;77.69
18819;BME280;9537;45.594;9.294;2023-02-17T04:00:53;100895.88;;;4.36;77.90
18819;BME280;9537;45.594;9.294;2023-02-17T04:01:55;100896.19;;;4.32;77.79
18819;BME280;9537;45.594;9.294;2023-02-17T04:02:57;100896.19;;;4.32;78.42
18819;BME280;9537;45.594;9.294;2023-02-17T04:04:00;100900.56;;;4.31;78.19
18819;BME280;9537;45.594;9.294;2023-02-17T04:05:02;100903.09;;;4.33;78.05
18819;BME280;9537;45.594;9.294;2023-02-17T04:06:04;100902.44;;;4.29;77.98
18819;BME280;9537;45.594;9.294;2023-02-17T04:07:06;100902.28;;;4.32;77.71
18819;BME280;9537;45.594;9.294;2023-02-17T04:08:08;100903.09;;;4.33;77.85
18819;BME280;9537;45.594;9.294;2023-02-17T04:09:09;100912.59;;;4.34;77.63
18819;BME280;9537;45.594;9.294;2023-02-17T04:10:11;100908.00;;;4.24;77.73
18819;BME280;9537;45.594;9.294;2023-02-17T04:11:13;100913.22;;;4.24;77.94
18819;BME280;9537;45.594;9.294;2023-02-17T04:12:14;100906.13;;;4.26;78.02
18819;BME280;9537;45.594;9.294;2023-02-17T04:13:16;100914.06;;;4.25;78.63
18819;BME280;9537;45.594;9.294;2023-02-17T04:14:18;100909.25;;;4.19;79.06
18819;BME280;9537;45.594;9.294;2023-02-17T04:15:19;100912.97;;;4.15;79.73
18819;BME280;9537;45.594;9.294;2023-02-17T04:16:21;100923.44;;;4.15;80.11
18819;BME280;9537;45.594;9.294;2023-02-17T04:17:22;100919.69;;;4.19;79.71
18819;BME280;9537;45.594;9.294;2023-02-17T04:18:24;100918.03;;;4.18;79.04
18819;BME280;9537;45.594;9.294;2023-02-17T04:19:25;100917.09;;;4.19;79.04
18819;BME280;9537;45.594;9.294;2023-02-17T04:20:28;100923.25;;;4.18;79.39
18819;BME280;9537;45.594;9.294;2023-02-17T04:21:30;100922.50;;;4.16;79.01
18819;BME280;9537;45.594;9.294;2023-02-17T04:22:32;100921.53;;;4.04;79.13
18819;BME280;9537;45.594;9.294;2023-02-17T04:23:33;100918.25;;;4.00;78.77
18819;BME280;9537;45.594;9.294;2023-02-17T04:24:36;100922.56;;;4.01;78.62
18819;BME280;9537;45.594;9.294;2023-02-17T04:25:37;100919.41;;;3.96;78.40
18819;BME280;9537;45.594;9.294;2023-02-17T04:26:39;100919.22;;;3.99;78.50
18819;BME280;9537;45.594;9.294;2023-02-17T04:27:40;100917.63;;;3.97;78.54
18819;BME280;9537;45.594;9.294;2023-02-17T04:28:42;100919.41;;;3.96;78.34
18819;BME280;9537;45.594;9.294;2023-02-17T04:29:43;100919.84;;;4.03;78.16
18819;BME280;9537;45.594;9.294;2023-02-17T04:30:47;100917.97;;;4.05;77.88
18819;BME280;9537;45.594;9.294;2023-02-17T04:31:48;100921.94;;;3.98;78.05
18819;BME280;9537;45.594;9.294;2023-02-17T04:32:51;100922.03;;;3.96;78.41
18819;BME280;9537;45.594;9.294;2023-02-17T04:33:52;100918.59;;;3.96;78.55
18819;BME280;9537;45.594;9.294;2023-02-17T04:34:54;100914.94;;;3.98;79.05
18819;BME280;9537;45.594;9.294;2023-02-17T04:35:56;100921.09;;;3.97;78.99
18819;BME280;9537;45.594;9.294;2023-02-17T04:37:00;100920.25;;;3.97;79.40
18819;BME280;9537;45.594;9.294;2023-02-17T04:38:01;100923.81;;;3.96;79.12
18819;BME280;9537;45.594;9.294;2023-02-17T04:39:03;100923.19;;;3.92;79.22
18819;BME280;9537;45.594;9.294;2023-02-17T04:40:06;100913.97;;;3.87;79.21
18819;BME280;9537;45.594;9.294;2023-02-17T04:41:10;100916.47;;;3.88;79.18
18819;BME280;9537;45.594;9.294;2023-02-17T04:42:12;100911.44;;;3.85;79.08
18819;BME280;9537;45.594;9.294;2023-02-17T04:43:13;100917.69;;;3.82;78.83
18819;BME280;9537;45.594;9.294;2023-02-17T04:44:15;100916.41;;;3.75;78.93
18819;BME280;9537;45.594;9.294;2023-02-17T04:45:16;100910.53;;;3.72;78.78
18819;BME280;9537;45.594;9.294;2023-02-17T04:46:18;100914.09;;;3.71;78.44
18819;BME280;9537;45.594;9.294;2023-02-17T04:47:19;100908.31;;;3.66;78.32
18819;BME280;9537;45.594;9.294;2023-02-17T04:48:23;100914.69;;;3.61;78.97
18819;BME280;9537;45.594;9.294;2023-02-17T04:49:24;100913.72;;;3.63;78.45
18819;BME280;9537;45.594;9.294;2023-02-17T04:50:26;100918.03;;;3.64;78.48
18819;BME280;9537;45.594;9.294;2023-02-17T04:51:28;100918.69;;;3.67;78.38
18819;BME280;9537;45.594;9.294;2023-02-17T04:52:30;100921.72;;;3.74;78.70
18819;BME280;9537;45.594;9.294;2023-02-17T04:53:31;100914.09;;;3.71;78.99
18819;BME280;9537;45.594;9.294;2023-02-17T04:54:34;100919.94;;;3.74;78.94
18819;BME280;9537;45.594;9.294;2023-02-17T04:55:35;100909.44;;;3.61;79.08
18819;BME280;9537;45.594;9.294;2023-02-17T04:56:37;100911.94;;;3.63;79.35
18819;BME280;9537;45.594;9.294;2023-02-17T04:57:39;100912.81;;;3.64;79.91
18819;BME280;9537;45.594;9.294;2023-02-17T04:58:40;100908.81;;;3.58;79.77
18819;BME280;9537;45.594;9.294;2023-02-17T04:59:43;100906.84;;;3.61;79.52
18819;BME280;9537;45.594;9.294;2023-02-17T05:00:45;100911.88;;;3.65;79.92
18819;BME280;9537;45.594;9.294;2023-02-17T05:01:47;100911.59;;;3.69;79.83
18819;BME280;9537;45.594;9.294;2023-02-17T05:02:48;100907.91;;;3.72;79.51
18819;BME280;9537;45.594;9.294;2023-02-17T05:03:50;100914.91;;;3.71;79.48
18819;BME280;9537;45.594;9.294;2023-02-17T05:04:52;100913.44;;;3.67;79.45
18819;BME280;9537;45.594;9.294;2023-02-17T05:05:53;100917.84;;;3.67;79.71
18819;BME280;9537;45.594;9.294;2023-02-17T05:06:57;100917.53;;;3.71;79.66
18819;BME280;9537;45.594;9.294;2023-02-17T05:07:58;100910.53;;;3.72;79.98
18819;BME280;9537;45.594;9.294;2023-02-17T05:09:00;100925.28;;;3.73;79.63
18819;BME280;9537;45.594;9.294;2023-02-17T05:10:01;100925.38;;;3.71;79.43
18819;BME280;9537;45.594;9.294;2023-02-17T05:11:04;100927.06;;;3.72;79.38
18819;BME280;9537;45.594;9.294;2023-02-17T05:12:05;100928.00;;;3.71;79.26
18819;BME280;9537;45.594;9.294;2023-02-17T05:13:07;100933.31;;;3.70;79.09
18819;BME280;9537;45.594;9.294;2023-02-17T05:14:08;100931.53;;;3.70;79.49
18819;BME280;9537;45.594;9.294;2023-02-17T05:15:10;100935.09;;;3.69;79.39
18819;BME280;9537;45.594;9.294;2023-02-17T05:16:11;100937.88;;;3.66;79.19
18819;BME280;9537;45.594;9.294;2023-02-17T05:17:13;100924.94;;;3.65;79.61
18819;BME280;9537;45.594;9.294;2023-02-17T05:18:14;100935.38;;;3.65;79.56
18819;BME280;9537;45.594;9.294;2023-02-17T05:19:16;100934.44;;;3.66;79.39
18819;BME280;9537;45.594;9.294;2023-02-17T05:20:17;100938.06;;;3.63;79.52
18819;BME280;9537;45.594;9.294;2023-02-17T05:21:19;100935.38;;;3.65;79.99
18819;BME280;9537;45.594;9.294;2023-02-17T05:22:22;100934.81;;;3.59;80.26
18819;BME280;9537;45.594;9.294;2023-02-17T05:23:24;100940.81;;;3.61;80.27
18819;BME280;9537;45.594;9.294;2023-02-17T05:24:26;100929.41;;;3.63;80.29
18819;BME280;9537;45.594;9.294;2023-02-17T05:25:27;100933.72;;;3.64;80.45
18819;BME280;9537;45.594;9.294;2023-02-17T05:26:29;100935.59;;;3.61;80.61
18819;BME280;9537;45.594;9.294;2023-02-17T05:27:30;100932.41;;;3.56;80.65
18819;BME280;9537;45.594;9.294;2023-02-17T05:28:33;100940.88;;;3.60;81.22
18819;BME280;9537;45.594;9.294;2023-02-17T05:29:34;100924.38;;;3.59;80.72
18819;BME280;9537;45.594;9.294;2023-02-17T05:30:37;100925.97;;;3.62;80.53
18819;BME280;9537;45.594;9.294;2023-02-17T05:31:37;100925.88;;;3.64;80.42
18819;BME280;9537;45.594;9.294;2023-02-17T05:32:39;100928.50;;;3.64;80.95
18819;BME280;9537;45.594;9.294;2023-02-17T05:33:40;100925.13;;;3.61;81.19
18819;BME280;9537;45.594;9.294;2023-02-17T05:34:42;100931.94;;;3.64;81.22
18819;BME280;9537;45.594;9.294;2023-02-17T05:35:43;100933.53;;;3.67;81.14
18819;BME280;9537;45.594;9.294;2023-02-17T05:36:46;100931.63;;;3.69;81.01
18819;BME280;9537;45.594;9.294;2023-02-17T05:37:48;100928.94;;;3.70;80.80
18819;BME280;9537;45.594;9.294;2023-02-17T05:38:50;100924.75;;;3.68;81.32
18819;BME280;9537;45.594;9.294;2023-02-17T05:39:51;100924.81;;;3.66;81.06
18819;BME280;9537;45.594;9.294;2023-02-17T05:40:53;100932.50;;;3.69;80.73
18819;BME280;9537;45.594;9.294;2023-02-17T05:41:55;100934.16;;;3.70;80.08
18819;BME280;9537;45.594;9.294;2023-02-17T05:42:57;100931.00;;;3.65;79.42
18819;BME280;9537;45.594;9.294;2023-02-17T05:44:00;100932.03;;;3.63;79.23